sensor_id;sensor_type;location;lat;lon;timestamp;P1;durP1;ratioP1;P2;durP2;ratioP2
44981;SDS011;30716;41.740;-70.400;2022-11-02T00:01:45;0.10;;;0.00;;
44981;SDS011;30716;41.740;-70.400;2022-11-02T00:04:11;0.00;;;0.00;;
44981;SDS011;30716;41.740;-70.400;2022-11-02T00:06:38;0.00;;;0.00;;
44981;SDS011;30716;41.740;-70.400;2022-11-02T00:09:05;0.05;;;0.00;;
44981;SDS011;30716;41.740;-70.400;2022-11-02T00:11:32;0.00;;;0.00;;
44981;SDS011;30716;41.740;-70.400;2022-11-02T00:13:58;0.05;;;0.00;;
44981;SDS011;30716;41.740;-70.400;2022-11-02T00:16:24;0.25;;;0.08;;
44981;SDS011;30716;41.740;-70.400;2022-11-02T00:18:51;0.20;;;0.10;;
44981;SDS011;30716;41.740;-70.400;2022-11-02T00:21:20;0.30;;;0.10;;
44981;SDS011;30716;41.740;-70.400;2022-11-02T00:23:47;0.00;;;0.00;;
44981;SDS011;30716;41.740;-70.400;2022-11-02T00:26:14;0.10;;;0.10;;
44981;SDS011;30716;41.740;-70.400;2022-11-02T00:28:40;0.55;;;0.20;;
44981;SDS011;30716;41.740;-70.400;2022-11-02T00:31:06;0.00;;;0.00;;
44981;SDS011;30716;41.740;-70.400;2022-11-02T00:33:32;0.43;;;0.10;;
44981;SDS011;30716;41.740;-70.400;2022-11-02T00:35:58;0.85;;;0.10;;
44981;SDS011;30716;41.740;-70.400;2022-11-02T00:38:24;0.00;;;0.00;;
44981;SDS011;30716;41.740;-70.400;2022-11-02T00:40:50;0.10;;;0.00;;
44981;SDS011;30716;41.740;-70.400;2022-11-02T00:43:16;0.10;;;0.00;;
44981;SDS011;30716;41.740;-70.400;2022-11-02T00:45:43;0.00;;;0.00;;
44981;SDS011;30716;41.740;-70.400;2022-11-02T00:48:09;0.20;;;0.10;;
44981;SDS011;30716;41.740;-70.400;2022-11-02T00:50:35;0.00;;;0.00;;
44981;SDS011;30716;41.740;-70.400;2022-11-02T00:53:01;0.00;;;0.00;;
44981;SDS011;30716;41.740;-70.400;2022-11-02T00:55:27;0.00;;;0.00;;
44981;SDS011;30716;41.740;-70.400;2022-11-02T00:57:53;0.00;;;0.00;;
44981;SDS011;30716;41.740;-70.400;2022-11-02T01:00:19;0.03;;;0.00;;
44981;SDS011;30716;41.740;-70.400;2022-11-02T01:02:45;0.32;;;0.10;;
44981;SDS011;30716;41.740;-70.400;2022-11-02T01:05:11;0.05;;;0.00;;
44981;SDS011;30716;41.740;-70.400;2022-11-02T01:07:38;0.03;;;0.00;;
44981;SDS011;30716;41.740;-70.400;2022-11-02T01:10:06;0.10;;;0.10;;
44981;SDS011;30716;41.740;-70.400;2022-11-02T01:12:35;0.10;;;0.00;;
44981;SDS011;30716;41.740;-70.400;2022-11-02T01:15:05;0.00;;;0.00;;
44981;SDS011;30716;41.740;-70.400;2022-11-02T01:17:32;0.00;;;0.00;;
44981;SDS011;30716;41.740;-70.400;2022-11-02T01:19:58;0.00;;;0.00;;
44981;SDS011;30716;41.740;-70.400;2022-11-02T01:22:24;0.20;;;0.10;;
44981;SDS011;30716;41.740;-70.400;2022-11-02T01:24:50;0.10;;;0.10;;
44981;SDS011;30716;41.740;-70.400;2022-11-02T01:27:16;0.10;;;0.00;;
44981;SDS011;30716;41.740;-70.400;2022-11-02T01:29:43;0.10;;;0.10;;
44981;SDS011;30716;41.740;-70.400;2022-11-02T01:32:09;0.00;;;0.00;;
44981;SDS011;30716;41.740;-70.400;2022-11-02T01:34:35;0.30;;;0.00;;
44981;SDS011;30716;41.740;-70.400;2022-11-02T01:37:01;0.00;;;0.00;;
44981;SDS011;30716;41.740;-70.400;2022-11-02T01:39:27;0.10;;;0.00;;
44981;SDS011;30716;41.740;-70.400;2022-11-02T01:41:53;0.10;;;0.10;;
44981;SDS011;30716;41.740;-70.400;2022-11-02T01:44:26;0.08;;;0.03;;
44981;SDS011;30716;41.740;-70.400;2022-11-02T01:47:01;0.30;;;0.10;;
44981;SDS011;30716;41.740;-70.400;2022-11-02T01:49:29;0.20;;;0.00;;
44981;SDS011;30716;41.740;-70.400;2022-11-02T01:54:48;0.43;;;0.40;;
44981;SDS011;30716;41.740;-70.400;2022-11-02T01:57:19;0.00;;;0.00;;
44981;SDS011;30716;41.740;-70.400;2022-11-02T01:59:57;0.57;;;0.00;;
44981;SDS011;30716;41.740;-70.400;2022-11-02T02:02:28;0.00;;;0.00;;
44981;SDS011;30716;41.740;-70.400;2022-11-02T02:05:04;0.05;;;0.05;;
44981;SDS011;30716;41.740;-70.400;2022-11-02T02:07:32;0.05;;;0.00;;
44981;SDS011;30716;41.740;-70.400;2022-11-02T02:10:02;0.00;;;0.00;;
44981;SDS011;30716;41.740;-70.400;2022-11-02T02:12:29;0.10;;;0.10;;
44981;SDS011;30716;41.740;-70.400;2022-11-02T02:14:57;0.10;;;0.00;;
44981;SDS011;30716;41.740;-70.400;2022-11-02T02:20:30;3.03;;;0.10;;
44981;SDS011;30716;41.740;-70.400;2022-11-02T02:23:07;0.20;;;0.03;;
44981;SDS011;30716;41.740;-70.400;2022-11-02T02:28:49;0.08;;;0.08;;
44981;SDS011;30716;41.740;-70.400;2022-11-02T02:36:50;0.00;;;0.00;;
44981;SDS011;30716;41.740;-70.400;2022-11-02T02:39:24;0.00;;;0.00;;
44981;SDS011;30716;41.740;-70.400;2022-11-02T02:42:22;0.00;;;0.00;;
44981;SDS011;30716;41.740;-70.400;2022-11-02T02:48:15;0.10;;;0.10;;
44981;SDS011;30716;41.740;-70.400;2022-11-02T02:50:51;0.00;;;0.00;;
44981;SDS011;30716;41.740;-70.400;2022-11-02T02:53:32;0.10;;;0.00;;
44981;SDS011;30716;41.740;-70.400;2022-11-02T02:56:01;0.10;;;0.00;;
44981;SDS011;30716;41.740;-70.400;2022-11-02T02:58:31;0.22;;;0.10;;
44981;SDS011;30716;41.740;-70.400;2022-11-02T03:01:13;0.10;;;0.08;;
44981;SDS011;30716;41.740;-70.400;2022-11-02T03:03:42;0.10;;;0.00;;
44981;SDS011;30716;41.740;-70.400;2022-11-02T03:06:13;0.10;;;0.00;;
44981;SDS011;30716;41.740;-70.400;2022-11-02T03:08:46;0.10;;;0.10;;
44981;SDS011;30716;41.740;-70.400;2022-11-02T03:11:20;0.00;;;0.00;;
44981;SDS011;30716;41.740;-70.400;2022-11-02T03:13:58;0.43;;;0.10;;
44981;SDS011;30716;41.740;-70.400;2022-11-02T03:25:02;0.00;;;0.00;;
44981;SDS011;30716;41.740;-70.400;2022-11-02T03:30:18;0.00;;;0.00;;
44981;SDS011;30716;41.740;-70.400;2022-11-02T03:32:49;0.20;;;0.10;;
44981;SDS011;30716;41.740;-70.400;2022-11-02T03:35:42;0.30;;;0.10;;
44981;SDS011;30716;41.740;-70.400;2022-11-02T03:38:20;0.40;;;0.10;;
44981;SDS011;30716;41.740;-70.400;2022-11-02T03:40:49;0.30;;;0.10;;
44981;SDS011;30716;41.740;-70.400;2022-11-02T03:43:19;0.00;;;0.00;;
44981;SDS011;30716;41.740;-70.400;2022-11-02T03:45:49;0.20;;;0.10;;
44981;SDS011;30716;41.740;-70.400;2022-11-02T03:48:18;0.63;;;0.10;;
44981;SDS011;30716;41.740;-70.400;2022-11-02T03:50:49;0.25;;;0.20;;
44981;SDS011;30716;41.740;-70.400;2022-11-02T03:53:24;0.00;;;0.00;;
44981;SDS011;30716;41.740;-70.400;2022-11-02T03:55:57;0.10;;;0.05;;
44981;SDS011;30716;41.740;-70.400;2022-11-02T03:58:28;0.30;;;0.15;;
44981;SDS011;30716;41.740;-70.400;2022-11-02T04:00:59;0.30;;;0.10;;
44981;SDS011;30716;41.740;-70.400;2022-11-02T04:03:29;0.35;;;0.00;;
44981;SDS011;30716;41.740;-70.400;2022-11-02T04:05:57;0.20;;;0.10;;
44981;SDS011;30716;41.740;-70.400;2022-11-02T04:08:41;0.65;;;0.17;;
44981;SDS011;30716;41.740;-70.400;2022-11-02T04:11:10;0.22;;;0.20;;
44981;SDS011;30716;41.740;-70.400;2022-11-02T04:13:55;0.17;;;0.17;;
44981;SDS011;30716;41.740;-70.400;2022-11-02T04:16:40;0.10;;;0.10;;
44981;SDS011;30716;41.740;-70.400;2022-11-02T04:19:07;0.05;;;0.05;;
44981;SDS011;30716;41.740;-70.400;2022-11-02T04:21:51;0.55;;;0.20;;
44981;SDS011;30716;41.740;-70.400;2022-11-02T04:24:36;0.35;;;0.20;;
44981;SDS011;30716;41.740;-70.400;2022-11-02T04:27:21;0.38;;;0.20;;
44981;SDS011;30716;41.740;-70.400;2022-11-02T04:29:47;0.03;;;0.03;;
44981;SDS011;30716;41.740;-70.400;2022-11-02T04:32:14;0.25;;;0.10;;
44981;SDS011;30716;41.740;-70.400;2022-11-02T04:35:00;0.10;;;0.10;;
44981;SDS011;30716;41.740;-70.400;2022-11-02T04:37:26;0.15;;;0.10;;
44981;SDS011;30716;41.740;-70.400;2022-11-02T04:40:10;0.13;;;0.00;;
44981;SDS011;30716;41.740;-70.400;2022-11-02T04:42:37;0.10;;;0.10;;
44981;SDS011;30716;41.740;-70.400;2022-11-02T04:45:03;0.55;;;0.20;;
44981;SDS011;30716;41.740;-70.400;2022-11-02T04:47:29;0.32;;;0.20;;
44981;SDS011;30716;41.740;-70.400;2022-11-02T04:49:55;0.05;;;0.05;;
44981;SDS011;30716;41.740;-70.400;2022-11-02T04:52:21;0.20;;;0.10;;
44981;SDS011;30716;41.740;-70.400;2022-11-02T04:54:47;0.30;;;0.20;;
44981;SDS011;30716;41.740;-70.400;2022-11-02T04:57:13;0.20;;;0.10;;
44981;SDS011;30716;41.740;-70.400;2022-11-02T04:59:39;0.08;;;0.08;;
44981;SDS011;30716;41.740;-70.400;2022-11-02T05:02:05;0.10;;;0.10;;
44981;SDS011;30716;41.740;-70.400;2022-11-02T05:04:31;0.30;;;0.25;;
44981;SDS011;30716;41.740;-70.400;2022-11-02T05:06:57;0.10;;;0.00;;
44981;SDS011;30716;41.740;-70.400;2022-11-02T05:09:24;0.50;;;0.20;;
44981;SDS011;30716;41.740;-70.400;2022-11-02T05:11:50;1.75;;;0.15;;
44981;SDS011;30716;41.740;-70.400;2022-11-02T05:14:16;0.20;;;0.10;;
44981;SDS011;30716;41.740;-70.400;2022-11-02T05:16:42;0.35;;;0.20;;
44981;SDS011;30716;41.740;-70.400;2022-11-02T05:19:08;0.10;;;0.08;;
44981;SDS011;30716;41.740;-70.400;2022-11-02T05:21:34;0.43;;;0.30;;
44981;SDS011;30716;41.740;-70.400;2022-11-02T05:24:01;0.30;;;0.20;;
44981;SDS011;30716;41.740;-70.400;2022-11-02T05:26:27;0.65;;;0.20;;
44981;SDS011;30716;41.740;-70.400;2022-11-02T05:28:53;0.28;;;0.15;;
44981;SDS011;30716;41.740;-70.400;2022-11-02T05:31:19;0.17;;;0.17;;
44981;SDS011;30716;41.740;-70.400;2022-11-02T05:33:45;0.10;;;0.10;;
44981;SDS011;30716;41.740;-70.400;2022-11-02T05:36:11;0.25;;;0.10;;
44981;SDS011;30716;41.740;-70.400;2022-11-02T05:38:37;0.22;;;0.20;;
44981;SDS011;30716;41.740;-70.400;2022-11-02T05:41:03;0.70;;;0.32;;
44981;SDS011;30716;41.740;-70.400;2022-11-02T05:43:29;0.30;;;0.10;;
44981;SDS011;30716;41.740;-70.400;2022-11-02T05:45:59;0.17;;;0.17;;
44981;SDS011;30716;41.740;-70.400;2022-11-02T05:48:27;0.30;;;0.20;;
44981;SDS011;30716;41.740;-70.400;2022-11-02T05:50:57;0.60;;;0.22;;
44981;SDS011;30716;41.740;-70.400;2022-11-02T05:53:25;0.98;;;0.10;;
44981;SDS011;30716;41.740;-70.400;2022-11-02T05:55:56;0.10;;;0.10;;
44981;SDS011;30716;41.740;-70.400;2022-11-02T05:58:26;0.30;;;0.20;;
44981;SDS011;30716;41.740;-70.400;2022-11-02T06:00:53;0.50;;;0.30;;
44981;SDS011;30716;41.740;-70.400;2022-11-02T06:03:19;0.10;;;0.10;;
44981;SDS011;30716;41.740;-70.400;2022-11-02T06:05:45;0.43;;;0.20;;
44981;SDS011;30716;41.740;-70.400;2022-11-02T06:08:11;0.20;;;0.20;;
44981;SDS011;30716;41.740;-70.400;2022-11-02T06:10:37;0.45;;;0.25;;
44981;SDS011;30716;41.740;-70.400;2022-11-02T06:13:07;0.40;;;0.20;;
44981;SDS011;30716;41.740;-70.400;2022-11-02T06:15:33;0.20;;;0.20;;
44981;SDS011;30716;41.740;-70.400;2022-11-02T06:17:59;0.40;;;0.20;;
44981;SDS011;30716;41.740;-70.400;2022-11-02T06:20:25;0.70;;;0.30;;
44981;SDS011;30716;41.740;-70.400;2022-11-02T06:22:51;0.52;;;0.30;;
44981;SDS011;30716;41.740;-70.400;2022-11-02T06:25:17;0.17;;;0.17;;
44981;SDS011;30716;41.740;-70.400;2022-11-02T06:27:53;0.30;;;0.20;;
44981;SDS011;30716;41.740;-70.400;2022-11-02T06:30:21;0.10;;;0.10;;
44981;SDS011;30716;41.740;-70.400;2022-11-02T06:32:48;0.52;;;0.30;;
44981;SDS011;30716;41.740;-70.400;2022-11-02T06:35:16;0.40;;;0.22;;
44981;SDS011;30716;41.740;-70.400;2022-11-02T06:37:43;0.22;;;0.10;;
44981;SDS011;30716;41.740;-70.400;2022-11-02T06:40:10;0.17;;;0.17;;
44981;SDS011;30716;41.740;-70.400;2022-11-02T06:42:37;0.17;;;0.10;;
44981;SDS011;30716;41.740;-70.400;2022-11-02T06:45:03;0.17;;;0.10;;
44981;SDS011;30716;41.740;-70.400;2022-11-02T06:47:30;0.28;;;0.20;;
44981;SDS011;30716;41.740;-70.400;2022-11-02T06:49:58;0.65;;;0.40;;
44981;SDS011;30716;41.740;-70.400;2022-11-02T06:52:24;0.32;;;0.17;;
44981;SDS011;30716;41.740;-70.400;2022-11-02T06:54:51;0.28;;;0.15;;
44981;SDS011;30716;41.740;-70.400;2022-11-02T06:57:17;0.35;;;0.30;;
44981;SDS011;30716;41.740;-70.400;2022-11-02T06:59:44;0.68;;;0.30;;
44981;SDS011;30716;41.740;-70.400;2022-11-02T07:02:13;0.25;;;0.25;;
44981;SDS011;30716;41.740;-70.400;2022-11-02T07:04:39;0.30;;;0.30;;
44981;SDS011;30716;41.740;-70.400;2022-11-02T07:07:05;0.40;;;0.20;;
44981;SDS011;30716;41.740;-70.400;2022-11-02T07:09:32;0.70;;;0.20;;
44981;SDS011;30716;41.740;-70.400;2022-11-02T07:11:58;0.50;;;0.38;;
44981;SDS011;30716;41.740;-70.400;2022-11-02T07:14:24;0.30;;;0.20;;
44981;SDS011;30716;41.740;-70.400;2022-11-02T07:16:52;0.45;;;0.28;;
44981;SDS011;30716;41.740;-70.400;2022-11-02T07:19:19;0.40;;;0.20;;
44981;SDS011;30716;41.740;-70.400;2022-11-02T07:21:45;0.30;;;0.20;;
44981;SDS011;30716;41.740;-70.400;2022-11-02T07:24:11;0.20;;;0.20;;
44981;SDS011;30716;41.740;-70.400;2022-11-02T07:26:44;0.40;;;0.30;;
44981;SDS011;30716;41.740;-70.400;2022-11-02T07:29:14;0.38;;;0.30;;
44981;SDS011;30716;41.740;-70.400;2022-11-02T07:31:41;0.50;;;0.30;;
44981;SDS011;30716;41.740;-70.400;2022-11-02T07:34:07;1.48;;;0.40;;
44981;SDS011;30716;41.740;-70.400;2022-11-02T07:36:37;0.22;;;0.20;;
44981;SDS011;30716;41.740;-70.400;2022-11-02T07:39:10;0.43;;;0.20;;
44981;SDS011;30716;41.740;-70.400;2022-11-02T07:41:36;0.57;;;0.40;;
44981;SDS011;30716;41.740;-70.400;2022-11-02T07:44:03;0.28;;;0.28;;
44981;SDS011;30716;41.740;-70.400;2022-11-02T07:46:29;0.50;;;0.50;;
44981;SDS011;30716;41.740;-70.400;2022-11-02T07:48:55;0.32;;;0.20;;
44981;SDS011;30716;41.740;-70.400;2022-11-02T07:51:21;0.20;;;0.10;;
44981;SDS011;30716;41.740;-70.400;2022-11-02T07:53:48;0.40;;;0.20;;
44981;SDS011;30716;41.740;-70.400;2022-11-02T07:56:14;0.35;;;0.30;;
44981;SDS011;30716;41.740;-70.400;2022-11-02T07:58:40;0.82;;;0.43;;
44981;SDS011;30716;41.740;-70.400;2022-11-02T08:01:06;0.15;;;0.15;;
44981;SDS011;30716;41.740;-70.400;2022-11-02T08:03:33;0.43;;;0.30;;
44981;SDS011;30716;41.740;-70.400;2022-11-02T08:06:02;0.35;;;0.20;;
44981;SDS011;30716;41.740;-70.400;2022-11-02T08:08:28;0.52;;;0.40;;
44981;SDS011;30716;41.740;-70.400;2022-11-02T08:10:54;0.52;;;0.35;;
44981;SDS011;30716;41.740;-70.400;2022-11-02T08:13:26;0.30;;;0.20;;
44981;SDS011;30716;41.740;-70.400;2022-11-02T08:15:53;0.43;;;0.32;;
44981;SDS011;30716;41.740;-70.400;2022-11-02T08:18:19;0.77;;;0.30;;
44981;SDS011;30716;41.740;-70.400;2022-11-02T08:20:47;0.40;;;0.30;;
44981;SDS011;30716;41.740;-70.400;2022-11-02T08:23:14;0.50;;;0.40;;
44981;SDS011;30716;41.740;-70.400;2022-11-02T08:25:41;0.30;;;0.30;;
44981;SDS011;30716;41.740;-70.400;2022-11-02T08:28:19;0.20;;;0.20;;
44981;SDS011;30716;41.740;-70.400;2022-11-02T08:30:47;0.45;;;0.40;;
44981;SDS011;30716;41.740;-70.400;2022-11-02T08:33:17;0.45;;;0.30;;
44981;SDS011;30716;41.740;-70.400;2022-11-02T08:35:44;0.47;;;0.30;;
44981;SDS011;30716;41.740;-70.400;2022-11-02T08:38:11;0.50;;;0.20;;
44981;SDS011;30716;41.740;-70.400;2022-11-02T08:40:38;0.30;;;0.20;;
44981;SDS011;30716;41.740;-70.400;2022-11-02T08:43:05;0.52;;;0.30;;
44981;SDS011;30716;41.740;-70.400;2022-11-02T08:45:33;0.65;;;0.43;;
44981;SDS011;30716;41.740;-70.400;2022-11-02T08:48:01;0.50;;;0.30;;
44981;SDS011;30716;41.740;-70.400;2022-11-02T08:50:27;0.32;;;0.22;;
44981;SDS011;30716;41.740;-70.400;2022-11-02T08:52:53;0.60;;;0.30;;
44981;SDS011;30716;41.740;-70.400;2022-11-02T08:55:19;0.50;;;0.30;;
44981;SDS011;30716;41.740;-70.400;2022-11-02T08:57:46;0.60;;;0.40;;
44981;SDS011;30716;41.740;-70.400;2022-11-02T09:00:14;0.77;;;0.47;;
44981;SDS011;30716;41.740;-70.400;2022-11-02T09:02:41;0.93;;;0.45;;
44981;SDS011;30716;41.740;-70.400;2022-11-02T09:05:08;0.70;;;0.40;;
44981;SDS011;30716;41.740;-70.400;2022-11-02T09:07:35;0.52;;;0.40;;
44981;SDS011;30716;41.740;-70.400;2022-11-02T09:10:01;0.45;;;0.20;;
44981;SDS011;30716;41.740;-70.400;2022-11-02T09:12:28;0.70;;;0.50;;
44981;SDS011;30716;41.740;-70.400;2022-11-02T09:14:54;0.70;;;0.50;;
44981;SDS011;30716;41.740;-70.400;2022-11-02T09:17:20;0.47;;;0.30;;
44981;SDS011;30716;41.740;-70.400;2022-11-02T09:19:46;0.40;;;0.38;;
44981;SDS011;30716;41.740;-70.400;2022-11-02T09:22:12;0.70;;;0.50;;
44981;SDS011;30716;41.740;-70.400;2022-11-02T09:24:38;0.43;;;0.35;;
44981;SDS011;30716;41.740;-70.400;2022-11-02T09:27:04;0.85;;;0.43;;
44981;SDS011;30716;41.740;-70.400;2022-11-02T09:29:30;0.50;;;0.40;;
44981;SDS011;30716;41.740;-70.400;2022-11-02T09:32:00;0.25;;;0.25;;
44981;SDS011;30716;41.740;-70.400;2022-11-02T09:34:26;0.68;;;0.40;;
44981;SDS011;30716;41.740;-70.400;2022-11-02T09:36:52;0.68;;;0.45;;
44981;SDS011;30716;41.740;-70.400;2022-11-02T09:39:18;0.65;;;0.40;;
44981;SDS011;30716;41.740;-70.400;2022-11-02T09:41:56;0.73;;;0.40;;
44981;SDS011;30716;41.740;-70.400;2022-11-02T09:44:36;0.75;;;0.40;;
44981;SDS011;30716;41.740;-70.400;2022-11-02T09:47:11;0.50;;;0.20;;
44981;SDS011;30716;41.740;-70.400;2022-11-02T09:49:38;0.88;;;0.40;;
44981;SDS011;30716;41.740;-70.400;2022-11-02T09:52:07;0.80;;;0.40;;
44981;SDS011;30716;41.740;-70.400;2022-11-02T09:54:39;1.95;;;0.50;;
44981;SDS011;30716;41.740;-70.400;2022-11-02T09:57:16;1.05;;;0.55;;
44981;SDS011;30716;41.740;-70.400;2022-11-02T09:59:49;0.60;;;0.40;;
44981;SDS011;30716;41.740;-70.400;2022-11-02T10:10:04;0.95;;;0.30;;
44981;SDS011;30716;41.740;-70.400;2022-11-02T10:16:25;1.25;;;0.70;;
44981;SDS011;30716;41.740;-70.400;2022-11-02T10:19:01;0.93;;;0.45;;
44981;SDS011;30716;41.740;-70.400;2022-11-02T10:21:35;1.38;;;0.45;;
44981;SDS011;30716;41.740;-70.400;2022-11-02T10:24:10;0.73;;;0.70;;
44981;SDS011;30716;41.740;-70.400;2022-11-02T10:26:57;0.75;;;0.38;;
44981;SDS011;30716;41.740;-70.400;2022-11-02T10:29:47;1.13;;;0.60;;
44981;SDS011;30716;41.740;-70.400;2022-11-02T10:32:17;0.75;;;0.35;;
44981;SDS011;30716;41.740;-70.400;2022-11-02T10:34:43;0.50;;;0.50;;
44981;SDS011;30716;41.740;-70.400;2022-11-02T10:37:18;0.60;;;0.40;;
44981;SDS011;30716;41.740;-70.400;2022-11-02T10:40:12;1.98;;;0.50;;
44981;SDS011;30716;41.740;-70.400;2022-11-02T10:45:43;0.60;;;0.40;;
44981;SDS011;30716;41.740;-70.400;2022-11-02T10:51:29;0.52;;;0.40;;
44981;SDS011;30716;41.740;-70.400;2022-11-02T10:53:56;1.02;;;0.50;;
44981;SDS011;30716;41.740;-70.400;2022-11-02T10:56:23;0.60;;;0.40;;
44981;SDS011;30716;41.740;-70.400;2022-11-02T10:59:11;1.13;;;0.50;;
44981;SDS011;30716;41.740;-70.400;2022-11-02T11:04:24;1.10;;;0.60;;
44981;SDS011;30716;41.740;-70.400;2022-11-02T11:06:53;0.57;;;0.38;;
44981;SDS011;30716;41.740;-70.400;2022-11-02T11:14:25;0.80;;;0.40;;
44981;SDS011;30716;41.740;-70.400;2022-11-02T11:16:56;0.98;;;0.45;;
44981;SDS011;30716;41.740;-70.400;2022-11-02T11:19:34;1.83;;;0.40;;
44981;SDS011;30716;41.740;-70.400;2022-11-02T11:22:03;0.90;;;0.40;;
44981;SDS011;30716;41.740;-70.400;2022-11-02T11:24:47;0.50;;;0.40;;
44981;SDS011;30716;41.740;-70.400;2022-11-02T11:29:52;0.68;;;0.40;;
44981;SDS011;30716;41.740;-70.400;2022-11-02T11:32:24;0.75;;;0.45;;
44981;SDS011;30716;41.740;-70.400;2022-11-02T11:34:53;1.30;;;0.60;;
44981;SDS011;30716;41.740;-70.400;2022-11-02T11:37:31;1.45;;;0.70;;
44981;SDS011;30716;41.740;-70.400;2022-11-02T11:40:02;0.80;;;0.60;;
44981;SDS011;30716;41.740;-70.400;2022-11-02T11:42:33;1.50;;;0.75;;
44981;SDS011;30716;41.740;-70.400;2022-11-02T11:45:22;1.10;;;0.60;;
44981;SDS011;30716;41.740;-70.400;2022-11-02T11:47:52;0.43;;;0.40;;
44981;SDS011;30716;41.740;-70.400;2022-11-02T11:50:31;0.73;;;0.55;;
44981;SDS011;30716;41.740;-70.400;2022-11-02T11:55:47;1.13;;;0.57;;
44981;SDS011;30716;41.740;-70.400;2022-11-02T11:58:20;1.40;;;0.50;;
44981;SDS011;30716;41.740;-70.400;2022-11-02T12:12:11;1.70;;;0.65;;
44981;SDS011;30716;41.740;-70.400;2022-11-02T12:14:55;0.98;;;0.60;;
44981;SDS011;30716;41.740;-70.400;2022-11-02T12:22:58;1.40;;;0.63;;
44981;SDS011;30716;41.740;-70.400;2022-11-02T12:25:58;1.38;;;0.73;;
44981;SDS011;30716;41.740;-70.400;2022-11-02T12:28:44;1.55;;;0.57;;
44981;SDS011;30716;41.740;-70.400;2022-11-02T12:31:32;0.60;;;0.50;;
44981;SDS011;30716;41.740;-70.400;2022-11-02T12:47:54;1.23;;;0.82;;
44981;SDS011;30716;41.740;-70.400;2022-11-02T12:50:36;1.20;;;0.43;;
44981;SDS011;30716;41.740;-70.400;2022-11-02T12:56:07;0.95;;;0.50;;
44981;SDS011;30716;41.740;-70.400;2022-11-02T12:58:49;0.77;;;0.50;;
44981;SDS011;30716;41.740;-70.400;2022-11-02T13:01:19;1.45;;;0.57;;
44981;SDS011;30716;41.740;-70.400;2022-11-02T13:06:43;1.30;;;0.70;;
44981;SDS011;30716;41.740;-70.400;2022-11-02T13:09:16;0.85;;;0.60;;
44981;SDS011;30716;41.740;-70.400;2022-11-02T13:11:49;1.35;;;0.70;;
44981;SDS011;30716;41.740;-70.400;2022-11-02T13:14:24;1.30;;;0.65;;
44981;SDS011;30716;41.740;-70.400;2022-11-02T13:16:54;1.52;;;0.90;;
44981;SDS011;30716;41.740;-70.400;2022-11-02T13:19:33;0.80;;;0.45;;
44981;SDS011;30716;41.740;-70.400;2022-11-02T13:22:03;1.60;;;0.73;;
44981;SDS011;30716;41.740;-70.400;2022-11-02T13:24:33;1.35;;;0.73;;
44981;SDS011;30716;41.740;-70.400;2022-11-02T13:27:06;1.73;;;0.87;;
44981;SDS011;30716;41.740;-70.400;2022-11-02T13:30:01;1.25;;;0.60;;
44981;SDS011;30716;41.740;-70.400;2022-11-02T13:32:36;0.60;;;0.50;;
44981;SDS011;30716;41.740;-70.400;2022-11-02T13:38:04;1.60;;;0.80;;
44981;SDS011;30716;41.740;-70.400;2022-11-02T13:51:50;1.33;;;0.73;;
44981;SDS011;30716;41.740;-70.400;2022-11-02T13:54:29;1.85;;;0.52;;
44981;SDS011;30716;41.740;-70.400;2022-11-02T13:57:04;1.13;;;0.60;;
44981;SDS011;30716;41.740;-70.400;2022-11-02T13:59:43;1.85;;;0.70;;
44981;SDS011;30716;41.740;-70.400;2022-11-02T14:02:11;1.10;;;0.50;;
44981;SDS011;30716;41.740;-70.400;2022-11-02T14:04:41;1.30;;;0.50;;
44981;SDS011;30716;41.740;-70.400;2022-11-02T14:07:19;1.80;;;0.65;;
44981;SDS011;30716;41.740;-70.400;2022-11-02T14:09:48;1.20;;;0.60;;
44981;SDS011;30716;41.740;-70.400;2022-11-02T14:28:32;0.93;;;0.73;;
44981;SDS011;30716;41.740;-70.400;2022-11-02T14:42:28;1.48;;;0.80;;
44981;SDS011;30716;41.740;-70.400;2022-11-02T14:44:59;0.85;;;0.40;;
44981;SDS011;30716;41.740;-70.400;2022-11-02T14:47:35;1.85;;;0.70;;
44981;SDS011;30716;41.740;-70.400;2022-11-02T14:52:38;0.98;;;0.52;;
44981;SDS011;30716;41.740;-70.400;2022-11-02T14:55:08;1.65;;;1.00;;
44981;SDS011;30716;41.740;-70.400;2022-11-02T14:58:02;1.13;;;0.60;;
44981;SDS011;30716;41.740;-70.400;2022-11-02T15:17:01;0.85;;;0.50;;
44981;SDS011;30716;41.740;-70.400;2022-11-02T15:19:48;1.50;;;0.60;;
44981;SDS011;30716;41.740;-70.400;2022-11-02T15:22:37;1.70;;;0.50;;
44981;SDS011;30716;41.740;-70.400;2022-11-02T15:25:19;2.05;;;0.70;;
44981;SDS011;30716;41.740;-70.400;2022-11-02T15:30:48;1.02;;;0.73;;
44981;SDS011;30716;41.740;-70.400;2022-11-02T15:33:19;1.75;;;0.45;;
44981;SDS011;30716;41.740;-70.400;2022-11-02T15:35:58;1.55;;;0.60;;
44981;SDS011;30716;41.740;-70.400;2022-11-02T15:38:26;1.73;;;0.75;;
44981;SDS011;30716;41.740;-70.400;2022-11-02T16:01:05;2.78;;;0.95;;
44981;SDS011;30716;41.740;-70.400;2022-11-02T16:06:25;0.95;;;0.50;;
44981;SDS011;30716;41.740;-70.400;2022-11-02T16:09:07;0.80;;;0.60;;
44981;SDS011;30716;41.740;-70.400;2022-11-02T16:14:56;0.85;;;0.57;;
44981;SDS011;30716;41.740;-70.400;2022-11-02T16:17:37;1.27;;;0.70;;
44981;SDS011;30716;41.740;-70.400;2022-11-02T16:20:10;1.10;;;0.60;;
44981;SDS011;30716;41.740;-70.400;2022-11-02T16:22:40;2.17;;;0.70;;
44981;SDS011;30716;41.740;-70.400;2022-11-02T16:25:24;2.10;;;0.82;;
44981;SDS011;30716;41.740;-70.400;2022-11-02T16:28:18;1.08;;;0.60;;
44981;SDS011;30716;41.740;-70.400;2022-11-02T16:31:06;0.90;;;0.52;;
44981;SDS011;30716;41.740;-70.400;2022-11-02T16:34:04;0.70;;;0.60;;
44981;SDS011;30716;41.740;-70.400;2022-11-02T16:36:41;1.33;;;0.90;;
44981;SDS011;30716;41.740;-70.400;2022-11-02T16:42:08;1.88;;;0.68;;
44981;SDS011;30716;41.740;-70.400;2022-11-02T16:44:39;1.90;;;0.70;;
44981;SDS011;30716;41.740;-70.400;2022-11-02T16:49:34;1.13;;;0.47;;
44981;SDS011;30716;41.740;-70.400;2022-11-02T16:54:56;1.10;;;0.90;;
44981;SDS011;30716;41.740;-70.400;2022-11-02T16:57:26;1.42;;;0.88;;
44981;SDS011;30716;41.740;-70.400;2022-11-02T17:02:38;2.17;;;0.60;;
44981;SDS011;30716;41.740;-70.400;2022-11-02T17:05:23;0.77;;;0.60;;
44981;SDS011;30716;41.740;-70.400;2022-11-02T17:10:26;0.98;;;0.63;;
44981;SDS011;30716;41.740;-70.400;2022-11-02T17:12:53;2.28;;;0.80;;
44981;SDS011;30716;41.740;-70.400;2022-11-02T17:15:22;1.20;;;0.50;;
44981;SDS011;30716;41.740;-70.400;2022-11-02T17:20:34;1.45;;;0.90;;
44981;SDS011;30716;41.740;-70.400;2022-11-02T17:23:03;0.73;;;0.40;;
44981;SDS011;30716;41.740;-70.400;2022-11-02T17:25:38;1.13;;;0.55;;
44981;SDS011;30716;41.740;-70.400;2022-11-02T17:31:19;1.20;;;0.75;;
44981;SDS011;30716;41.740;-70.400;2022-11-02T17:33:48;0.98;;;0.68;;
44981;SDS011;30716;41.740;-70.400;2022-11-02T17:36:14;0.93;;;0.70;;
44981;SDS011;30716;41.740;-70.400;2022-11-02T17:38:41;0.68;;;0.50;;
44981;SDS011;30716;41.740;-70.400;2022-11-02T17:41:17;1.33;;;0.73;;
44981;SDS011;30716;41.740;-70.400;2022-11-02T17:44:02;1.60;;;0.70;;
44981;SDS011;30716;41.740;-70.400;2022-11-02T17:46:33;1.00;;;0.60;;
44981;SDS011;30716;41.740;-70.400;2022-11-02T17:48:59;1.05;;;0.50;;
44981;SDS011;30716;41.740;-70.400;2022-11-02T17:51:26;1.60;;;0.77;;
44981;SDS011;30716;41.740;-70.400;2022-11-02T17:53:52;1.27;;;0.80;;
44981;SDS011;30716;41.740;-70.400;2022-11-02T17:56:18;1.10;;;0.70;;
44981;SDS011;30716;41.740;-70.400;2022-11-02T17:58:44;1.60;;;0.80;;
44981;SDS011;30716;41.740;-70.400;2022-11-02T18:01:10;1.10;;;0.80;;
44981;SDS011;30716;41.740;-70.400;2022-11-02T18:03:37;1.20;;;0.65;;
44981;SDS011;30716;41.740;-70.400;2022-11-02T18:06:04;1.10;;;0.68;;
44981;SDS011;30716;41.740;-70.400;2022-11-02T18:08:30;1.30;;;0.68;;